Terminal Aerodrome Forecast
Issued by NWS Wilmington, OH

Current Version | Previous Version | Graphics & Text | Print | Product List | Glossary On
Versions: 1 2 3 4 5 6 7 8 9 10 11 12 13 14 15 16 17 18 19 20 21 22 23 24 25
000
FTUS41 KILN 262036 AAB
TAFILN
TAF AMD
KILN 262036Z 2621/2718 33012G20KT P6SM TS SCT025 OVC040CB
      TEMPO 2621/2622 3SM TSRA BR OVC020CB
     FM262200 32005KT P6SM VCTS SCT025 BKN040CB
     FM270000 35005KT P6SM BKN040
     FM270500 04004KT P6SM SKC
     FM271500 08004KT P6SM FEW050=

USA.gov is the U.S. government's official web portal to all federal, state and local government web resources and services.